Terminal Aerodrome Forecast
Issued by NWS

Home | Current Version | Previous Version | Text Only | Print | Product List | Glossary On
Versions: 1 2 3 4 5 6 7 8 9 10 11 12 13 14 15 16 17 18 19 20 21 22 23 24 25 26 27 28 29 30 31 32 33 34 35
343
FTUS46 KEKA 251720
TAFCEC
TAF
KCEC 251720Z 2518/2618 31010KT P6SM OVC008
     FM260000 33010KT P6SM FEW006 SCT012
     FM260400 17010KT P6SM OVC006
     FM261200 VRB04KT 2SM BR OVC003=

USA.gov is the U.S. government's official web portal to all federal, state and local government web resources and services.